createdAt,value
2022-12-18T00:00:42.535Z,86.47
2022-12-18T00:01:34.804Z,86.10
2022-12-18T00:02:23.053Z,86.01
2022-12-18T00:03:09.677Z,86.69
2022-12-18T00:03:57.175Z,86.12
2022-12-18T00:04:43.946Z,86.25
2022-12-18T00:05:30.416Z,85.91
2022-12-18T00:06:17.756Z,86.00
2022-12-18T00:07:04.426Z,85.83
2022-12-18T00:07:51.087Z,86.30
2022-12-18T00:08:37.501Z,86.59
2022-12-18T00:09:24.799Z,86.55
2022-12-18T00:10:11.444Z,86.14
2022-12-18T00:11:11.943Z,85.79
2022-12-18T00:11:59.457Z,85.89
2022-12-18T00:12:46.047Z,85.83
2022-12-18T00:13:32.780Z,85.86
2022-12-18T00:14:19.326Z,85.65
2022-12-18T00:15:06.398Z,85.71
2022-12-18T00:15:53.135Z,86.02
2022-12-18T00:16:47.486Z,85.84
2022-12-18T00:17:34.121Z,85.97
2022-12-18T00:18:20.894Z,85.91
2022-12-18T00:19:08.387Z,86.09
2022-12-18T00:19:54.856Z,85.93
2022-12-18T00:20:41.371Z,86.10
2022-12-18T00:21:32.839Z,86.02
2022-12-18T00:22:19.451Z,86.10
2022-12-18T00:23:07.521Z,86.39
2022-12-18T00:23:54.153Z,85.98
2022-12-18T00:24:40.865Z,86.24
2022-12-18T00:25:27.525Z,86.26
2022-12-18T00:26:17.976Z,86.15
2022-12-18T00:27:04.612Z,86.31
2022-12-18T00:27:51.377Z,86.39
2022-12-18T00:28:38.277Z,86.09
2022-12-18T00:29:24.811Z,86.46
2022-12-18T00:30:12.046Z,86.40
2022-12-18T00:31:07.277Z,86.47
2022-12-18T00:31:53.941Z,86.35
2022-12-18T00:32:40.658Z,86.17
2022-12-18T00:33:27.359Z,86.47
2022-12-18T00:34:14.530Z,86.14
2022-12-18T00:35:01.057Z,86.19
2022-12-18T00:35:47.819Z,86.05
2022-12-18T00:36:36.216Z,85.82
2022-12-18T00:37:22.966Z,85.80
2022-12-18T00:38:11.212Z,85.57
2022-12-18T00:38:59.675Z,85.59
2022-12-18T00:39:46.138Z,85.72
2022-12-18T00:40:32.816Z,85.72
2022-12-18T00:41:42.080Z,85.87
2022-12-18T00:42:47.283Z,85.54
2022-12-18T00:43:33.978Z,85.45
2022-12-18T00:44:20.849Z,85.54
2022-12-18T00:45:12.326Z,85.59
2022-12-18T00:45:59.811Z,86.00
2022-12-18T00:46:49.055Z,85.70
2022-12-18T00:47:35.587Z,85.98
2022-12-18T00:48:23.177Z,85.80
2022-12-18T00:49:10.348Z,85.73
2022-12-18T00:49:57.077Z,86.14
2022-12-18T00:50:43.587Z,85.93
2022-12-18T00:51:30.653Z,86.29
2022-12-18T00:52:17.156Z,86.03
2022-12-18T00:53:03.735Z,85.98
2022-12-18T00:53:50.430Z,86.11
2022-12-18T00:54:37.045Z,86.09
2022-12-18T00:55:23.652Z,85.90
2022-12-18T00:56:10.577Z,86.07
2022-12-18T00:56:57.372Z,86.38
2022-12-18T00:57:44.245Z,86.18
2022-12-18T00:58:32.151Z,86.02
2022-12-18T00:59:24.832Z,85.98
2022-12-18T01:00:15.030Z,85.92
2022-12-18T01:01:02.195Z,85.93
2022-12-18T01:01:48.994Z,85.85
2022-12-18T01:02:35.901Z,85.76
2022-12-18T01:03:22.848Z,85.71
2022-12-18T01:04:09.849Z,85.81
2022-12-18T01:04:57.569Z,85.75
2022-12-18T01:05:44.375Z,85.80
2022-12-18T01:06:32.015Z,85.77
2022-12-18T01:07:18.544Z,85.66
2022-12-18T01:08:05.511Z,85.75
2022-12-18T01:08:52.035Z,85.88
2022-12-18T01:09:38.827Z,85.78
2022-12-18T01:10:26.669Z,85.86
2022-12-18T01:11:18.751Z,86.05
2022-12-18T01:12:05.705Z,86.11
2022-12-18T01:12:52.776Z,86.05
2022-12-18T01:13:41.061Z,85.92
2022-12-18T01:14:27.906Z,86.17
2022-12-18T01:15:15.857Z,85.90
2022-12-18T01:16:03.354Z,85.87
2022-12-18T01:16:50.155Z,85.68
2022-12-18T01:17:36.704Z,85.65
2022-12-18T01:18:23.240Z,85.66
2022-12-18T01:19:11.092Z,85.66
2022-12-18T01:19:57.797Z,85.62
2022-12-18T01:20:44.373Z,85.95
2022-12-18T01:21:30.855Z,85.94
2022-12-18T01:22:17.408Z,85.95
2022-12-18T01:23:07.309Z,85.78
2022-12-18T01:23:56.673Z,85.72
2022-12-18T01:24:43.705Z,85.98
2022-12-18T01:25:30.368Z,85.83
2022-12-18T01:26:17.235Z,85.92
2022-12-18T01:27:04.338Z,85.90
2022-12-18T01:27:50.850Z,85.76
2022-12-18T01:28:38.957Z,85.76
2022-12-18T01:29:27.637Z,85.85
2022-12-18T01:30:14.667Z,85.54
2022-12-18T01:31:19.595Z,85.65
2022-12-18T01:32:07.325Z,85.89
2022-12-18T01:32:54.274Z,85.88
2022-12-18T01:33:41.570Z,85.98
2022-12-18T01:34:28.346Z,85.80
2022-12-18T01:35:14.935Z,85.75
2022-12-18T01:36:01.571Z,85.70
2022-12-18T01:36:48.040Z,85.83
2022-12-18T01:37:34.490Z,85.58
2022-12-18T01:38:20.998Z,86.00
2022-12-18T01:39:11.921Z,85.76
2022-12-18T01:40:01.664Z,85.65
2022-12-18T01:40:48.384Z,85.69
2022-12-18T01:41:55.568Z,85.60
2022-12-18T01:42:42.058Z,85.63
2022-12-18T01:43:53.449Z,85.53
2022-12-18T01:44:52.702Z,85.48
2022-12-18T01:45:39.585Z,85.45
2022-12-18T01:46:28.139Z,85.31
2022-12-18T01:47:21.692Z,85.53
2022-12-18T01:48:09.985Z,85.58
2022-12-18T01:49:02.748Z,85.64
2022-12-18T01:49:49.491Z,85.63
2022-12-18T01:50:42.692Z,85.63
2022-12-18T01:51:31.949Z,85.65
2022-12-18T01:52:21.389Z,85.62
2022-12-18T01:53:11.074Z,85.41
2022-12-18T01:53:59.947Z,85.32
2022-12-18T01:54:49.633Z,85.47
2022-12-18T01:55:52.783Z,85.42
2022-12-18T01:56:39.273Z,85.51
2022-12-18T01:57:27.307Z,85.52
2022-12-18T01:58:14.506Z,85.13
2022-12-18T01:59:10.409Z,85.34
2022-12-18T02:00:03.923Z,85.54
2022-12-18T02:01:07.098Z,85.69
2022-12-18T02:01:54.001Z,85.58
2022-12-18T02:02:43.821Z,85.55
2022-12-18T02:03:30.483Z,85.52
2022-12-18T02:04:25.626Z,85.41
2022-12-18T02:05:17.734Z,85.61
2022-12-18T02:06:11.889Z,85.43
2022-12-18T02:07:21.165Z,85.43
2022-12-18T02:08:22.230Z,85.23
2022-12-18T02:09:18.038Z,85.21
2022-12-18T02:10:25.263Z,85.21
2022-12-18T02:11:23.372Z,85.13
2022-12-18T02:12:31.738Z,85.09
2022-12-18T02:13:51.772Z,85.22
2022-12-18T02:14:56.282Z,85.07
2022-12-18T02:15:51.905Z,84.97
2022-12-18T02:16:55.449Z,85.17
2022-12-18T02:17:55.286Z,85.29
2022-12-18T02:18:49.643Z,85.29
2022-12-18T02:19:48.413Z,85.18
2022-12-18T02:20:41.340Z,85.07
2022-12-18T02:21:36.792Z,85.14
2022-12-18T02:22:54.056Z,85.26
2022-12-18T02:24:05.684Z,84.99
2022-12-18T02:25:06.917Z,85.15
2022-12-18T02:26:08.008Z,85.11
2022-12-18T02:27:00.870Z,85.26
2022-12-18T02:27:53.066Z,85.03
2022-12-18T02:29:16.763Z,84.91
2022-12-18T02:30:06.675Z,84.98
2022-12-18T02:31:00.691Z,84.97
2022-12-18T02:31:58.393Z,84.96
2022-12-18T02:32:52.082Z,84.72
2022-12-18T02:33:42.903Z,84.87
2022-12-18T02:34:35.860Z,84.86
2022-12-18T02:35:28.457Z,84.68
2022-12-18T02:36:21.637Z,84.60
2022-12-18T02:37:14.905Z,84.71
2022-12-18T02:38:05.174Z,84.48
2022-12-18T02:38:57.885Z,84.42
2022-12-18T02:39:48.839Z,84.52
2022-12-18T02:40:37.971Z,84.43
2022-12-18T02:41:25.889Z,84.49
2022-12-18T02:42:13.587Z,84.47
2022-12-18T02:43:18.723Z,84.32
2022-12-18T02:44:13.420Z,84.13
2022-12-18T02:45:00.493Z,84.29
2022-12-18T02:45:58.784Z,84.31
2022-12-18T02:46:52.403Z,84.18
2022-12-18T02:47:44.941Z,84.25
2022-12-18T02:48:36.011Z,84.38
2022-12-18T02:49:31.328Z,84.33
2022-12-18T02:50:34.855Z,84.34
2022-12-18T02:51:37.495Z,84.40
2022-12-18T02:52:37.289Z,84.48
2022-12-18T02:53:38.391Z,84.49
2022-12-18T02:54:39.188Z,84.52
2022-12-18T02:55:35.308Z,84.35
2022-12-18T02:56:38.455Z,84.61
2022-12-18T02:57:40.024Z,84.70
2022-12-18T02:58:50.296Z,84.75
2022-12-18T03:00:15.603Z,84.49
2022-12-18T03:01:28.415Z,84.61
2022-12-18T03:02:45.276Z,84.57
2022-12-18T03:03:50.034Z,84.28
2022-12-18T03:04:53.232Z,84.76
2022-12-18T03:05:53.508Z,84.92
2022-12-18T03:06:48.187Z,84.66
2022-12-18T03:07:51.588Z,84.78
2022-12-18T03:08:45.388Z,85.20
2022-12-18T03:09:44.489Z,85.05
2022-12-18T03:10:36.499Z,84.85
2022-12-18T03:11:43.625Z,84.95
2022-12-18T03:12:39.546Z,84.79
2022-12-18T03:13:34.373Z,84.89
2022-12-18T03:14:24.355Z,85.22
2022-12-18T03:16:00.753Z,85.11
2022-12-18T03:16:54.350Z,85.12
2022-12-18T03:17:49.845Z,85.05
2022-12-18T03:18:54.816Z,85.02
2022-12-18T03:19:48.780Z,84.86
2022-12-18T03:20:38.068Z,85.04
2022-12-18T03:21:34.800Z,84.97
2022-12-18T03:22:25.756Z,84.86
2022-12-18T03:23:22.337Z,84.83
2022-12-18T03:24:12.720Z,84.61
2022-12-18T03:25:05.565Z,84.83
2022-12-18T03:26:00.805Z,84.78
2022-12-18T03:26:55.836Z,84.61
2022-12-18T03:27:49.987Z,84.74
2022-12-18T03:28:44.915Z,84.53
2022-12-18T03:29:36.840Z,84.70
2022-12-18T03:30:29.850Z,84.61
2022-12-18T03:31:18.986Z,84.69
2022-12-18T03:32:16.634Z,84.48
2022-12-18T03:33:25.036Z,84.70
2022-12-18T03:34:24.525Z,84.58
2022-12-18T03:35:17.838Z,84.70
2022-12-18T03:36:05.340Z,84.66
2022-12-18T03:36:53.018Z,84.34
2022-12-18T03:37:40.607Z,84.71
2022-12-18T03:38:28.052Z,84.74
2022-12-18T03:39:14.870Z,84.60
2022-12-18T03:40:07.417Z,84.87
2022-12-18T03:41:13.623Z,84.74
2022-12-18T03:42:41.325Z,84.71
2022-12-18T03:43:38.692Z,84.96
2022-12-18T03:44:40.811Z,84.80
2022-12-18T03:45:36.709Z,84.87
2022-12-18T03:46:39.875Z,84.82
2022-12-18T03:47:40.563Z,84.90
2022-12-18T03:48:45.219Z,84.86
2022-12-18T03:50:12.475Z,84.79
2022-12-18T03:51:15.769Z,84.94
2022-12-18T03:52:19.224Z,84.98
2022-12-18T03:53:27.054Z,84.79
2022-12-18T03:54:15.736Z,84.96
2022-12-18T03:55:12.836Z,84.88
2022-12-18T03:56:04.944Z,84.92
2022-12-18T03:57:04.775Z,84.79
2022-12-18T03:57:54.210Z,84.78
2022-12-18T03:58:44.291Z,85.03
2022-12-18T03:59:40.163Z,84.83
2022-12-18T04:00:31.561Z,84.78
2022-12-18T04:01:33.841Z,84.78
2022-12-18T04:02:24.593Z,85.24
2022-12-18T04:03:14.612Z,85.03
2022-12-18T04:04:10.803Z,84.95
2022-12-18T04:05:03.537Z,84.88
2022-12-18T04:05:55.012Z,84.71
2022-12-18T04:06:44.669Z,84.85
2022-12-18T04:07:34.008Z,84.61
2022-12-18T04:08:22.845Z,84.50
2022-12-18T04:09:20.463Z,84.57
2022-12-18T04:10:10.135Z,84.61
2022-12-18T04:10:58.708Z,84.48
2022-12-18T04:11:47.622Z,84.55
2022-12-18T04:12:35.753Z,84.74
2022-12-18T04:13:24.349Z,84.57
2022-12-18T04:14:17.587Z,84.62
2022-12-18T04:15:06.721Z,84.48
2022-12-18T04:15:53.779Z,84.44
2022-12-18T04:16:43.182Z,84.38
2022-12-18T04:17:33.126Z,84.64
2022-12-18T04:18:19.657Z,84.69
2022-12-18T04:19:07.000Z,84.74
2022-12-18T04:19:59.014Z,84.40
2022-12-18T04:20:45.687Z,84.68
2022-12-18T04:21:32.175Z,84.61
2022-12-18T04:22:18.771Z,84.63
2022-12-18T04:23:08.618Z,84.66
2022-12-18T04:23:55.407Z,84.70
2022-12-18T04:24:43.110Z,84.76
2022-12-18T04:25:36.962Z,84.86
2022-12-18T04:26:30.844Z,84.81
2022-12-18T04:27:31.862Z,84.86
2022-12-18T04:28:19.681Z,84.91
2022-12-18T04:29:06.584Z,84.88
2022-12-18T04:29:53.434Z,84.66
2022-12-18T04:30:39.958Z,85.10
2022-12-18T04:31:27.425Z,85.20
2022-12-18T04:32:14.082Z,84.96
2022-12-18T04:33:03.226Z,85.27
2022-12-18T04:33:51.149Z,85.09
2022-12-18T04:34:37.805Z,85.13
2022-12-18T04:35:25.397Z,85.31
2022-12-18T04:36:13.343Z,85.39
2022-12-18T04:37:00.591Z,85.07
2022-12-18T04:37:47.420Z,84.88
2022-12-18T04:38:34.040Z,84.84
2022-12-18T04:39:26.617Z,85.38
2022-12-18T04:40:17.260Z,84.92
2022-12-18T04:41:06.691Z,85.04
2022-12-18T04:41:53.902Z,85.37
2022-12-18T04:42:41.294Z,85.18
2022-12-18T04:43:28.106Z,85.05
2022-12-18T04:44:14.752Z,85.15
2022-12-18T04:45:01.574Z,85.38
2022-12-18T04:45:48.007Z,85.57
2022-12-18T04:46:34.616Z,85.74
2022-12-18T04:47:21.289Z,85.59
2022-12-18T04:48:07.821Z,85.41
2022-12-18T04:48:54.470Z,85.55
2022-12-18T04:49:40.955Z,85.48
2022-12-18T04:50:28.659Z,85.40
2022-12-18T04:51:15.355Z,85.57
2022-12-18T04:52:01.955Z,85.66
2022-12-18T04:52:48.563Z,85.53
2022-12-18T04:53:35.181Z,85.39
2022-12-18T04:54:21.628Z,85.77
2022-12-18T04:55:08.711Z,85.47
2022-12-18T04:56:13.039Z,85.47
2022-12-18T04:56:59.533Z,85.29
2022-12-18T04:57:46.760Z,85.64
2022-12-18T04:58:33.282Z,85.84
2022-12-18T04:59:19.741Z,85.84
2022-12-18T05:00:06.956Z,85.75
2022-12-18T05:00:54.567Z,85.83
2022-12-18T05:01:41.329Z,85.80
2022-12-18T05:02:28.167Z,85.93
2022-12-18T05:03:14.653Z,86.18
2022-12-18T05:04:02.120Z,85.95
2022-12-18T05:04:48.750Z,85.94
2022-12-18T05:05:36.064Z,85.83
2022-12-18T05:06:22.501Z,85.91
2022-12-18T05:07:09.191Z,85.87
2022-12-18T05:07:55.892Z,85.91
2022-12-18T05:08:42.389Z,85.87
2022-12-18T05:09:28.878Z,86.05
2022-12-18T05:10:15.377Z,86.13
2022-12-18T05:11:04.735Z,86.19
2022-12-18T05:11:52.044Z,86.12
2022-12-18T05:12:58.580Z,86.10
2022-12-18T05:13:46.634Z,86.09
2022-12-18T05:14:33.268Z,86.06
2022-12-18T05:15:19.903Z,86.16
2022-12-18T05:16:07.329Z,86.18
2022-12-18T05:16:57.964Z,86.35
2022-12-18T05:17:47.510Z,86.15
2022-12-18T05:18:35.160Z,86.33
2022-12-18T05:19:21.710Z,86.40
2022-12-18T05:20:08.782Z,86.11
2022-12-18T05:20:55.839Z,86.23
2022-12-18T05:21:42.270Z,86.11
2022-12-18T05:22:29.191Z,86.17
2022-12-18T05:23:15.592Z,86.23
2022-12-18T05:24:02.042Z,86.45
2022-12-18T05:24:48.486Z,86.33
2022-12-18T05:25:34.939Z,86.25
2022-12-18T05:26:21.577Z,86.37
2022-12-18T05:27:08.085Z,86.32
2022-12-18T05:27:55.149Z,86.32
2022-12-18T05:28:41.644Z,86.42
2022-12-18T05:29:28.378Z,86.22
2022-12-18T05:30:16.455Z,86.51
2022-12-18T05:31:05.434Z,86.28
2022-12-18T05:31:52.209Z,86.22
2022-12-18T05:32:39.219Z,86.32
2022-12-18T05:33:27.784Z,86.29
2022-12-18T05:34:14.216Z,86.18
2022-12-18T05:35:01.124Z,86.14
2022-12-18T05:35:55.859Z,86.34
2022-12-18T05:36:42.680Z,86.34
2022-12-18T05:37:29.445Z,86.19
2022-12-18T05:38:16.093Z,86.34
2022-12-18T05:39:02.829Z,86.16
2022-12-18T05:39:49.291Z,86.07
2022-12-18T05:40:35.989Z,86.12
2022-12-18T05:41:22.763Z,86.08
2022-12-18T05:42:09.267Z,86.07
2022-12-18T05:42:55.688Z,86.04
2022-12-18T05:43:42.928Z,86.53
2022-12-18T05:44:29.589Z,86.21
2022-12-18T05:45:16.234Z,86.17
2022-12-18T05:46:08.284Z,86.18
2022-12-18T05:46:55.063Z,86.33
2022-12-18T05:47:41.756Z,86.00
2022-12-18T05:48:28.347Z,85.95
2022-12-18T05:49:14.831Z,85.91
2022-12-18T05:50:01.575Z,86.07
2022-12-18T05:50:49.978Z,85.89
2022-12-18T05:51:36.663Z,85.73
2022-12-18T05:52:23.663Z,85.92
2022-12-18T05:53:10.433Z,85.78
2022-12-18T05:53:56.916Z,85.85
2022-12-18T05:54:43.480Z,85.90
2022-12-18T05:55:30.266Z,85.77
2022-12-18T05:56:20.731Z,85.62
2022-12-18T05:57:07.352Z,85.83
2022-12-18T05:57:53.955Z,85.80
2022-12-18T05:58:40.636Z,85.98
2022-12-18T05:59:27.454Z,85.79
2022-12-18T06:00:14.516Z,85.79
2022-12-18T06:01:19.409Z,85.68
2022-12-18T06:02:06.144Z,85.83
2022-12-18T06:02:52.915Z,85.69
2022-12-18T06:03:40.125Z,85.71
2022-12-18T06:04:29.490Z,85.76
2022-12-18T06:05:16.463Z,85.75
2022-12-18T06:06:03.225Z,85.79
2022-12-18T06:06:49.834Z,85.89
2022-12-18T06:07:36.260Z,85.71
2022-12-18T06:08:22.747Z,85.85
2022-12-18T06:09:10.463Z,85.76
2022-12-18T06:09:56.972Z,85.80
2022-12-18T06:10:43.420Z,85.67
2022-12-18T06:11:30.036Z,85.86
2022-12-18T06:12:16.588Z,85.86
2022-12-18T06:13:04.223Z,85.78
2022-12-18T06:13:57.878Z,85.71
2022-12-18T06:14:44.765Z,85.52
2022-12-18T06:15:31.422Z,85.71
2022-12-18T06:16:18.209Z,85.39
2022-12-18T06:17:04.786Z,85.36
2022-12-18T06:17:51.389Z,85.58
2022-12-18T06:18:37.875Z,85.59
2022-12-18T06:19:24.660Z,85.58
2022-12-18T06:20:11.113Z,85.61
2022-12-18T06:20:58.493Z,85.67
2022-12-18T06:21:45.168Z,85.75
2022-12-18T06:22:33.074Z,85.95
2022-12-18T06:23:19.736Z,86.24
2022-12-18T06:24:06.855Z,85.87
2022-12-18T06:24:53.491Z,85.93
2022-12-18T06:25:40.387Z,86.02
2022-12-18T06:26:28.566Z,85.86
2022-12-18T06:27:15.828Z,86.06
2022-12-18T06:28:02.443Z,86.05
2022-12-18T06:28:49.083Z,86.21
2022-12-18T06:29:35.672Z,86.10
2022-12-18T06:30:22.171Z,86.14
2022-12-18T06:31:10.262Z,86.06
2022-12-18T06:31:56.923Z,86.62
2022-12-18T06:32:43.624Z,86.51
2022-12-18T06:33:31.144Z,86.13
2022-12-18T06:34:17.734Z,85.55
2022-12-18T06:35:04.861Z,85.98
2022-12-18T06:35:52.776Z,85.98
2022-12-18T06:36:40.804Z,85.64
2022-12-18T06:37:27.307Z,85.95
2022-12-18T06:38:13.910Z,85.91
2022-12-18T06:39:00.615Z,85.87
2022-12-18T06:39:47.105Z,85.79
2022-12-18T06:40:34.023Z,86.02
2022-12-18T06:41:22.844Z,85.98
2022-12-18T06:42:09.359Z,85.81
2022-12-18T06:42:56.035Z,85.97
2022-12-18T06:43:43.148Z,86.01
2022-12-18T06:44:29.859Z,85.74
2022-12-18T06:45:16.803Z,85.67
2022-12-18T06:46:05.318Z,85.85
2022-12-18T06:46:51.924Z,85.56
2022-12-18T06:47:38.520Z,85.57
2022-12-18T06:48:24.985Z,85.77
2022-12-18T06:49:11.567Z,85.63
2022-12-18T06:49:58.181Z,85.55
2022-12-18T06:50:44.632Z,85.64
2022-12-18T06:51:31.092Z,85.34
2022-12-18T06:52:17.612Z,85.63
2022-12-18T06:53:04.071Z,85.81
2022-12-18T06:53:50.845Z,85.79
2022-12-18T06:54:37.505Z,85.76
2022-12-18T06:55:24.111Z,85.88
2022-12-18T06:56:11.215Z,85.57
2022-12-18T06:56:58.414Z,85.67
2022-12-18T06:57:44.883Z,85.80
2022-12-18T06:58:33.306Z,85.74
2022-12-18T06:59:19.920Z,85.64
2022-12-18T07:00:08.010Z,85.44
2022-12-18T07:01:02.432Z,85.72
2022-12-18T07:01:49.122Z,85.59
2022-12-18T07:02:35.826Z,85.59
2022-12-18T07:03:22.357Z,85.64
2022-12-18T07:04:08.784Z,85.79
2022-12-18T07:04:55.492Z,85.68
2022-12-18T07:05:42.162Z,85.69
2022-12-18T07:06:28.576Z,85.61
2022-12-18T07:07:15.221Z,85.76
2022-12-18T07:08:02.248Z,85.74
2022-12-18T07:08:49.910Z,85.72
2022-12-18T07:09:36.507Z,85.71
2022-12-18T07:10:23.025Z,85.83
2022-12-18T07:11:10.082Z,85.68
2022-12-18T07:11:56.678Z,85.63
2022-12-18T07:12:44.541Z,85.68
2022-12-18T07:13:31.121Z,85.75
2022-12-18T07:14:17.653Z,85.88
2022-12-18T07:15:05.007Z,86.49
2022-12-18T07:15:51.800Z,85.97
2022-12-18T07:16:38.402Z,85.79
2022-12-18T07:17:25.158Z,85.97
2022-12-18T07:18:11.894Z,86.04
2022-12-18T07:18:58.339Z,85.88
2022-12-18T07:19:45.207Z,85.95
2022-12-18T07:20:31.774Z,85.88
2022-12-18T07:21:20.332Z,85.93
2022-12-18T07:22:06.855Z,86.13
2022-12-18T07:22:56.372Z,85.91
2022-12-18T07:23:43.331Z,85.90
2022-12-18T07:24:29.913Z,85.88
2022-12-18T07:25:16.639Z,86.08
2022-12-18T07:26:09.748Z,86.17
2022-12-18T07:26:56.310Z,86.18
2022-12-18T07:27:42.952Z,86.20
2022-12-18T07:28:29.462Z,85.99
2022-12-18T07:29:16.099Z,85.97
2022-12-18T07:30:02.626Z,86.14
2022-12-18T07:30:49.449Z,86.16
2022-12-18T07:31:36.140Z,86.03
2022-12-18T07:32:22.696Z,86.22
2022-12-18T07:33:11.584Z,85.95
2022-12-18T07:33:58.201Z,86.03
2022-12-18T07:34:46.459Z,85.78
2022-12-18T07:35:34.899Z,85.65
2022-12-18T07:36:21.341Z,85.83
2022-12-18T07:37:09.074Z,85.72
2022-12-18T07:37:57.310Z,85.56
2022-12-18T07:38:44.095Z,85.80
2022-12-18T07:39:30.611Z,86.11
2022-12-18T07:40:17.181Z,86.07
2022-12-18T07:41:07.245Z,85.90
2022-12-18T07:42:12.416Z,86.06
2022-12-18T07:43:00.203Z,85.58
2022-12-18T07:43:47.509Z,85.74
2022-12-18T07:44:35.766Z,85.63
2022-12-18T07:45:22.406Z,85.65
2022-12-18T07:46:12.326Z,86.08
2022-12-18T07:47:00.093Z,86.00
2022-12-18T07:47:46.498Z,85.91
2022-12-18T07:48:34.443Z,85.94
2022-12-18T07:49:21.077Z,85.91
2022-12-18T07:50:08.285Z,85.89
2022-12-18T07:50:54.801Z,85.80
2022-12-18T07:51:41.300Z,85.76
2022-12-18T07:52:27.866Z,85.84
2022-12-18T07:53:15.333Z,85.96
2022-12-18T07:54:01.790Z,85.93
2022-12-18T07:54:50.819Z,86.08
2022-12-18T07:55:54.937Z,85.84
2022-12-18T07:56:44.030Z,85.92
2022-12-18T07:58:38.784Z,86.16
2022-12-18T07:59:25.378Z,86.02
2022-12-18T08:00:13.187Z,85.90
2022-12-18T08:01:19.898Z,85.77
2022-12-18T08:02:08.429Z,85.92
2022-12-18T08:02:55.504Z,85.84
2022-12-18T08:03:42.898Z,85.90
2022-12-18T08:04:29.894Z,86.10
2022-12-18T08:05:16.607Z,85.98
2022-12-18T08:06:05.820Z,85.89
2022-12-18T08:06:52.859Z,86.16
2022-12-18T08:07:59.422Z,86.14
2022-12-18T08:08:46.175Z,86.40
2022-12-18T08:09:32.598Z,86.10
2022-12-18T08:10:20.636Z,85.79
2022-12-18T08:11:07.232Z,85.79
2022-12-18T08:11:53.735Z,86.00
2022-12-18T08:12:42.968Z,85.96
2022-12-18T08:13:29.731Z,85.72
2022-12-18T08:14:16.184Z,85.54
2022-12-18T08:15:03.113Z,85.49
2022-12-18T08:16:04.792Z,85.52
2022-12-18T08:16:51.390Z,85.58
2022-12-18T08:17:38.119Z,85.81
2022-12-18T08:18:24.708Z,85.57
2022-12-18T08:19:11.198Z,85.64
2022-12-18T08:19:57.656Z,85.80
2022-12-18T08:20:45.484Z,85.92
2022-12-18T08:21:32.546Z,85.94
2022-12-18T08:22:19.333Z,85.98
2022-12-18T08:23:05.877Z,85.90
2022-12-18T08:23:54.362Z,85.92
2022-12-18T08:24:40.955Z,85.75
2022-12-18T08:25:27.618Z,85.86
2022-12-18T08:26:15.281Z,85.92
2022-12-18T08:28:10.609Z,85.95
2022-12-18T08:28:58.773Z,85.89
2022-12-18T08:29:45.613Z,85.89
2022-12-18T08:30:32.331Z,85.90
2022-12-18T08:31:20.081Z,85.66
2022-12-18T08:32:08.073Z,85.80
2022-12-18T08:32:54.963Z,85.70
2022-12-18T08:33:42.430Z,86.12
2022-12-18T08:34:29.884Z,85.86
2022-12-18T08:35:18.878Z,86.18
2022-12-18T08:36:07.051Z,85.96
2022-12-18T08:36:58.345Z,85.96
2022-12-18T08:37:44.812Z,86.00
2022-12-18T08:38:32.845Z,86.05
2022-12-18T08:39:19.444Z,85.95
2022-12-18T08:40:06.747Z,85.87
2022-12-18T08:41:05.897Z,85.91
2022-12-18T08:42:11.013Z,85.87
2022-12-18T08:43:15.959Z,85.99
2022-12-18T08:44:21.102Z,85.98
2022-12-18T08:45:08.263Z,85.93
2022-12-18T08:45:54.965Z,86.50
2022-12-18T08:46:44.430Z,86.14
2022-12-18T08:47:31.030Z,85.99
2022-12-18T08:48:22.047Z,86.08
2022-12-18T08:49:11.118Z,85.96
2022-12-18T08:49:57.708Z,86.09
2022-12-18T08:50:44.308Z,85.98
2022-12-18T08:51:31.072Z,85.67
2022-12-18T08:52:17.707Z,86.17
2022-12-18T08:53:04.225Z,86.16
2022-12-18T08:53:50.702Z,86.01
2022-12-18T08:54:37.159Z,85.76
2022-12-18T08:55:24.002Z,85.91
2022-12-18T08:56:10.670Z,86.01
2022-12-18T08:56:57.261Z,86.63
2022-12-18T08:57:43.885Z,86.16
2022-12-18T08:58:31.174Z,86.26
2022-12-18T08:59:20.051Z,86.11
2022-12-18T09:00:07.422Z,86.76
2022-12-18T09:00:54.228Z,86.73
2022-12-18T09:01:40.791Z,86.43
2022-12-18T09:02:27.840Z,86.68
2022-12-18T09:03:16.045Z,86.18
2022-12-18T09:04:02.989Z,86.18
2022-12-18T09:04:55.425Z,86.10
2022-12-18T09:05:48.438Z,85.92
2022-12-18T09:06:35.230Z,86.10
2022-12-18T09:07:22.693Z,85.94
2022-12-18T09:08:09.885Z,86.02
2022-12-18T09:08:57.910Z,85.85
2022-12-18T09:09:44.454Z,85.67
2022-12-18T09:10:31.121Z,86.10
2022-12-18T09:11:24.503Z,85.87
2022-12-18T09:12:11.175Z,86.09
2022-12-18T09:12:57.676Z,85.53
2022-12-18T09:13:44.342Z,85.44
2022-12-18T09:14:31.128Z,85.52
2022-12-18T09:15:17.768Z,85.70
2022-12-18T09:16:04.744Z,85.51
2022-12-18T09:16:51.765Z,85.26
2022-12-18T09:17:38.312Z,85.02
2022-12-18T09:18:26.010Z,84.92
2022-12-18T09:19:12.731Z,84.85
2022-12-18T09:19:59.218Z,85.21
2022-12-18T09:20:46.403Z,85.47
2022-12-18T09:21:43.379Z,85.06
2022-12-18T09:22:32.899Z,85.08
2022-12-18T09:23:19.858Z,84.71
2022-12-18T09:24:08.813Z,84.83
2022-12-18T09:24:55.879Z,84.83
2022-12-18T09:25:42.671Z,84.31
2022-12-18T09:26:30.196Z,84.35
2022-12-18T09:27:16.671Z,84.17
2022-12-18T09:28:07.085Z,84.08
2022-12-18T09:28:54.658Z,84.20
2022-12-18T09:29:41.412Z,84.19
2022-12-18T09:30:27.842Z,84.21
2022-12-18T09:31:15.021Z,84.09
2022-12-18T09:32:01.523Z,83.72
2022-12-18T09:32:48.070Z,83.98
2022-12-18T09:33:36.806Z,83.85
2022-12-18T09:34:23.269Z,83.82
2022-12-18T09:35:09.689Z,84.08
2022-12-18T09:35:56.231Z,83.75
2022-12-18T09:36:43.084Z,83.42
2022-12-18T09:37:30.372Z,83.44
2022-12-18T09:38:21.078Z,83.39
2022-12-18T09:39:08.865Z,83.13
2022-12-18T09:39:55.764Z,82.68
2022-12-18T09:40:54.737Z,82.13
2022-12-18T09:41:46.913Z,82.32
2022-12-18T09:42:33.600Z,82.24
2022-12-18T09:43:42.168Z,82.29
2022-12-18T09:44:45.477Z,82.18
2022-12-18T09:45:43.560Z,81.70
2022-12-18T09:46:44.222Z,81.53
2022-12-18T09:47:38.107Z,81.56
2022-12-18T09:48:38.124Z,81.29
2022-12-18T09:49:30.189Z,81.79
2022-12-18T09:50:37.956Z,81.39
2022-12-18T09:51:31.587Z,81.32
2022-12-18T09:52:40.730Z,80.83
2022-12-18T09:53:35.616Z,79.79
2022-12-18T09:54:39.141Z,79.79
2022-12-18T09:55:37.587Z,80.03
2022-12-18T09:56:29.468Z,80.02
2022-12-18T09:57:23.710Z,78.95
2022-12-18T09:58:45.405Z,79.10
2022-12-18T09:59:37.994Z,79.12
2022-12-18T10:00:26.518Z,79.01
2022-12-18T10:01:19.415Z,78.39
2022-12-18T10:02:18.398Z,78.09
2022-12-18T10:03:12.689Z,77.79
2022-12-18T10:04:00.758Z,77.12
2022-12-18T10:05:06.524Z,76.99
2022-12-18T10:06:13.694Z,76.61
2022-12-18T10:07:35.042Z,77.13
2022-12-18T10:08:50.514Z,77.57
2022-12-18T10:09:46.407Z,77.80
2022-12-18T10:10:42.591Z,77.13
2022-12-18T10:11:56.396Z,76.93
2022-12-18T10:13:00.958Z,76.25
2022-12-18T10:14:07.285Z,76.90
2022-12-18T10:15:11.908Z,76.72
2022-12-18T10:16:10.652Z,76.89
2022-12-18T10:17:15.759Z,76.48
2022-12-18T10:18:25.971Z,76.67
2022-12-18T10:19:36.743Z,75.09
2022-12-18T10:20:50.125Z,75.21
2022-12-18T10:21:42.576Z,74.67
2022-12-18T10:22:48.751Z,75.38
2022-12-18T10:23:52.022Z,75.85
2022-12-18T10:24:54.863Z,75.99
2022-12-18T10:26:13.609Z,75.37
2022-12-18T10:27:16.569Z,76.01
2022-12-18T10:28:15.183Z,75.18
2022-12-18T10:29:05.655Z,74.66
2022-12-18T10:29:52.999Z,74.52
2022-12-18T10:30:42.048Z,74.25
2022-12-18T10:31:29.067Z,74.09
2022-12-18T10:32:30.372Z,73.96
2022-12-18T10:33:19.505Z,74.38
2022-12-18T10:34:11.048Z,74.34
2022-12-18T10:35:00.859Z,74.41
2022-12-18T10:35:51.031Z,74.92
2022-12-18T10:36:38.901Z,75.11
2022-12-18T10:37:28.572Z,75.08
2022-12-18T10:38:18.035Z,74.90
2022-12-18T10:39:19.910Z,75.57
2022-12-18T10:40:10.100Z,74.75
2022-12-18T10:41:18.186Z,73.54
2022-12-18T10:42:19.559Z,72.72
2022-12-18T10:43:13.439Z,73.43
2022-12-18T10:44:18.691Z,72.85
2022-12-18T10:45:12.553Z,73.30
2022-12-18T10:46:06.446Z,73.52
2022-12-18T10:47:10.143Z,73.55
2022-12-18T10:47:59.125Z,73.43
2022-12-18T10:48:48.402Z,73.24
2022-12-18T10:49:36.988Z,72.87
2022-12-18T10:51:09.111Z,72.45
2022-12-18T10:51:44.238Z,71.93
2022-12-18T10:52:31.232Z,71.71
2022-12-18T10:53:25.220Z,72.16
2022-12-18T10:54:24.845Z,71.64
2022-12-18T10:55:18.830Z,72.27
2022-12-18T10:56:07.409Z,72.22
2022-12-18T10:57:17.758Z,72.03
2022-12-18T10:58:32.398Z,71.29